createdAt,value
2018-09-25T00:01:04.294Z,4.60
2018-09-25T00:03:38.056Z,4.33
2018-09-25T00:06:12.198Z,4.20
2018-09-25T00:08:45.761Z,2.97
2018-09-25T00:11:19.488Z,3.43
2018-09-25T00:13:53.174Z,2.93
2018-09-25T00:16:26.830Z,3.03
2018-09-25T00:19:00.625Z,3.13
2018-09-25T00:21:34.405Z,2.60
2018-09-25T00:24:07.969Z,2.70
2018-09-25T00:26:41.571Z,2.30
2018-09-25T00:29:15.061Z,2.53
2018-09-25T00:31:49.242Z,2.03
2018-09-25T00:34:22.922Z,1.80
2018-09-25T00:36:56.394Z,2.20
2018-09-25T00:39:30.098Z,1.87
2018-09-25T00:42:03.653Z,1.80
2018-09-25T00:44:37.232Z,2.00
2018-09-25T00:47:11.197Z,2.60
2018-09-25T00:49:44.733Z,2.70
2018-09-25T00:52:18.519Z,2.53
2018-09-25T00:54:52.167Z,2.80
2018-09-25T00:57:25.945Z,2.90
2018-09-25T00:59:59.876Z,2.33
2018-09-25T01:02:33.366Z,2.93
2018-09-25T01:05:06.988Z,3.17
2018-09-25T01:07:40.769Z,3.37
2018-09-25T01:10:14.421Z,5.50
2018-09-25T01:12:48.177Z,6.63
2018-09-25T01:15:21.908Z,7.13
2018-09-25T01:17:55.525Z,7.40
2018-09-25T01:20:29.446Z,7.40
2018-09-25T01:23:03.042Z,6.97
2018-09-25T01:25:36.436Z,6.90
2018-09-25T01:28:11.169Z,7.23
2018-09-25T01:30:45.400Z,7.27
2018-09-25T01:33:19.137Z,7.20
2018-09-25T01:35:52.500Z,7.60
2018-09-25T01:38:27.215Z,6.90
2018-09-25T01:41:01.411Z,7.40
2018-09-25T01:43:35.213Z,7.60
2018-09-25T01:46:08.919Z,7.70
2018-09-25T01:48:42.857Z,7.90
2018-09-25T01:51:16.529Z,6.90
2018-09-25T01:53:50.335Z,6.83
2018-09-25T01:56:23.988Z,6.50
2018-09-25T01:58:57.753Z,7.00
2018-09-25T02:01:31.505Z,7.10
2018-09-25T02:04:05.230Z,7.77
2018-09-25T02:06:38.912Z,7.87
2018-09-25T02:09:12.503Z,7.67
2018-09-25T02:11:46.222Z,7.77
2018-09-25T02:14:19.952Z,7.00
2018-09-25T02:16:53.663Z,7.30
2018-09-25T02:19:35.299Z,6.50
2018-09-25T02:22:09.778Z,6.50
2018-09-25T02:24:43.802Z,5.47
2018-09-25T02:27:17.512Z,5.73
2018-09-25T02:29:51.229Z,6.47
2018-09-25T02:32:24.983Z,4.90
2018-09-25T02:34:58.635Z,7.33
2018-09-25T02:37:32.422Z,6.53
2018-09-25T02:40:06.176Z,7.20
2018-09-25T02:42:39.725Z,6.80
2018-09-25T02:45:13.452Z,5.93
2018-09-25T02:47:47.170Z,7.50
2018-09-25T02:50:20.767Z,8.30
2018-09-25T02:52:54.496Z,7.63
2018-09-25T02:55:32.566Z,8.13
2018-09-25T02:58:12.153Z,7.30
2018-09-25T03:00:49.530Z,8.73
2018-09-25T03:03:24.292Z,8.83
2018-09-25T03:05:59.035Z,8.20
2018-09-25T03:08:33.412Z,8.73
2018-09-25T03:11:07.606Z,7.67
2018-09-25T03:13:42.182Z,8.13
2018-09-25T03:16:17.170Z,9.40
2018-09-25T03:18:52.310Z,9.30
2018-09-25T03:21:26.790Z,9.80
2018-09-25T03:27:08.266Z,9.80
2018-09-25T03:29:50.574Z,9.40
2018-09-25T03:32:26.643Z,10.20
2018-09-25T03:35:02.102Z,10.10
2018-09-25T03:37:36.680Z,10.07
2018-09-25T03:40:11.553Z,9.70
2018-09-25T03:42:46.401Z,9.83
2018-09-25T03:45:25.873Z,9.03
2018-09-25T03:47:59.538Z,9.40
2018-09-25T03:50:33.265Z,8.90
2018-09-25T03:53:06.945Z,9.30
2018-09-25T03:55:40.708Z,8.73
2018-09-25T03:58:14.353Z,8.43
2018-09-25T04:00:48.043Z,8.77
2018-09-25T04:03:22.150Z,8.90
2018-09-25T04:05:56.563Z,8.60
2018-09-25T04:08:31.133Z,7.90
2018-09-25T04:11:05.732Z,8.43
2018-09-25T04:13:39.832Z,8.47
2018-09-25T04:16:13.982Z,8.47
2018-09-25T04:18:47.990Z,8.70
2018-09-25T04:21:22.656Z,9.20
2018-09-25T04:23:56.901Z,9.60
2018-09-25T04:26:31.265Z,8.10
2018-09-25T04:29:04.940Z,9.53
2018-09-25T04:31:38.744Z,7.97
2018-09-25T04:34:12.465Z,8.10
2018-09-25T04:36:46.132Z,7.30
2018-09-25T04:39:19.820Z,8.50
2018-09-25T04:41:53.536Z,8.57
2018-09-25T04:44:27.464Z,9.50
2018-09-25T04:47:04.221Z,8.57
2018-09-25T04:49:38.160Z,6.00
2018-09-25T04:52:11.852Z,7.10
2018-09-25T04:54:45.635Z,5.77
2018-09-25T04:57:19.335Z,3.93
2018-09-25T04:59:53.043Z,3.80
2018-09-25T05:02:26.707Z,2.20
2018-09-25T05:05:00.423Z,1.77
2018-09-25T05:07:34.164Z,2.87
2018-09-25T05:10:07.953Z,2.90
2018-09-25T05:12:41.512Z,4.90
2018-09-25T05:15:15.000Z,2.37
2018-09-25T05:17:48.600Z,2.60
2018-09-25T05:20:22.352Z,2.67
2018-09-25T05:22:56.103Z,2.03
2018-09-25T05:25:29.735Z,1.80
2018-09-25T05:28:03.479Z,2.70
2018-09-25T05:30:37.601Z,1.93
2018-09-25T05:33:12.006Z,1.80
2018-09-25T05:35:45.808Z,2.53
2018-09-25T05:38:19.419Z,1.80
2018-09-25T05:40:53.080Z,1.83
2018-09-25T05:43:29.857Z,1.70
2018-09-25T05:46:03.506Z,1.33
2018-09-25T05:48:41.589Z,1.90
2018-09-25T05:51:15.619Z,1.63
2018-09-25T05:53:49.364Z,1.30
2018-09-25T05:56:23.067Z,1.60
2018-09-25T05:58:56.800Z,1.30
2018-09-25T06:01:30.885Z,1.70
2018-09-25T06:04:04.632Z,1.47
2018-09-25T06:06:38.124Z,1.60
2018-09-25T06:09:13.536Z,1.70
2018-09-25T06:11:47.366Z,1.23
2018-09-25T06:14:20.956Z,1.53
2018-09-25T06:16:54.688Z,1.60
2018-09-25T06:19:28.490Z,1.70
2018-09-25T06:22:02.016Z,1.87
2018-09-25T06:24:36.168Z,2.03
2018-09-25T06:27:09.871Z,2.00
2018-09-25T06:29:43.604Z,2.70
2018-09-25T06:32:17.875Z,2.40
2018-09-25T06:34:51.697Z,2.27
2018-09-25T06:37:25.736Z,2.40
2018-09-25T06:39:59.500Z,1.83
2018-09-25T06:42:33.221Z,3.50
2018-09-25T06:45:06.833Z,2.00
2018-09-25T06:47:40.672Z,2.10
2018-09-25T06:50:14.212Z,2.03
2018-09-25T06:52:47.844Z,1.20
2018-09-25T06:55:21.483Z,1.50
2018-09-25T06:57:55.352Z,1.40
2018-09-25T07:00:29.056Z,1.60
2018-09-25T07:03:02.832Z,1.40
2018-09-25T07:05:39.011Z,1.63
2018-09-25T07:08:13.711Z,2.70
2018-09-25T07:10:47.356Z,1.30
2018-09-25T07:13:22.499Z,1.43
2018-09-25T07:18:37.293Z,6.57
2018-09-25T07:21:10.898Z,6.40
2018-09-25T07:23:44.681Z,7.67
2018-09-25T07:26:18.391Z,7.60
2018-09-25T07:28:52.192Z,8.10
2018-09-25T07:31:25.980Z,8.13
2018-09-25T07:33:59.640Z,10.30
2018-09-25T07:36:33.241Z,9.57
2018-09-25T07:39:06.904Z,10.50
2018-09-25T07:41:40.773Z,9.07
2018-09-25T07:44:14.528Z,9.70
2018-09-25T07:46:48.335Z,10.90
2018-09-25T07:49:22.045Z,11.33
2018-09-25T07:51:55.889Z,11.27
2018-09-25T07:54:29.448Z,11.30
2018-09-25T07:57:03.588Z,12.13
2018-09-25T07:59:37.365Z,11.73
2018-09-25T08:02:11.072Z,14.30
2018-09-25T08:04:44.749Z,31.57
2018-09-25T08:07:18.488Z,18.13
2018-09-25T08:09:52.224Z,7.63
2018-09-25T08:12:25.946Z,2.20
2018-09-25T08:14:59.703Z,1.33
2018-09-25T08:17:33.520Z,1.20
2018-09-25T08:20:07.206Z,1.17
2018-09-25T08:22:40.827Z,1.23
2018-09-25T08:25:14.512Z,1.63
2018-09-25T08:27:48.075Z,1.30
2018-09-25T08:30:21.728Z,1.23
2018-09-25T08:32:55.292Z,0.80
2018-09-25T08:35:29.086Z,1.17
2018-09-25T08:38:02.748Z,1.00
2018-09-25T08:40:36.480Z,1.23
2018-09-25T08:43:10.164Z,0.70
2018-09-25T08:45:43.976Z,1.07
2018-09-25T08:48:17.732Z,1.63
2018-09-25T08:50:51.418Z,0.90
2018-09-25T08:53:25.238Z,1.13
2018-09-25T08:55:58.600Z,1.43
2018-09-25T08:58:32.231Z,0.80
2018-09-25T09:01:05.806Z,1.30
2018-09-25T09:03:39.361Z,1.57
2018-09-25T09:06:13.044Z,1.30
2018-09-25T09:08:46.825Z,1.20
2018-09-25T09:11:20.476Z,1.43
2018-09-25T09:13:54.173Z,1.10
2018-09-25T09:16:27.916Z,1.17
2018-09-25T09:19:01.643Z,1.03
2018-09-25T09:21:35.353Z,1.13
2018-09-25T09:24:09.022Z,1.57
2018-09-25T09:26:42.728Z,1.10
2018-09-25T09:29:16.369Z,2.23
2018-09-25T09:31:50.011Z,1.50
2018-09-25T09:34:23.726Z,1.30
2018-09-25T09:36:57.385Z,1.10
2018-09-25T09:39:31.471Z,1.30
2018-09-25T09:42:05.454Z,1.10
2018-09-25T09:44:38.899Z,1.00
2018-09-25T09:47:12.584Z,1.10
2018-09-25T09:49:46.203Z,1.00
2018-09-25T09:52:19.942Z,1.53
2018-09-25T09:54:53.621Z,0.87
2018-09-25T09:57:36.202Z,1.23
2018-09-25T10:00:10.378Z,1.00
2018-09-25T10:02:44.164Z,0.80
2018-09-25T10:05:18.016Z,0.97
2018-09-25T10:07:51.597Z,0.70
2018-09-25T10:10:25.520Z,1.17
2018-09-25T10:12:59.256Z,0.90
2018-09-25T10:15:33.012Z,1.10
2018-09-25T10:18:07.721Z,1.30
2018-09-25T10:20:41.397Z,1.27
2018-09-25T10:23:15.077Z,1.37
2018-09-25T10:25:48.825Z,1.00
2018-09-25T10:28:22.477Z,1.47
2018-09-25T10:30:56.266Z,1.00
2018-09-25T10:33:30.873Z,0.87
2018-09-25T10:36:04.523Z,0.90
2018-09-25T10:38:38.080Z,0.80
2018-09-25T10:41:11.607Z,0.93
2018-09-25T10:43:45.475Z,0.77
2018-09-25T10:46:19.073Z,1.60
2018-09-25T10:48:52.644Z,1.07
2018-09-25T10:51:26.389Z,0.97
2018-09-25T10:54:00.012Z,0.80
2018-09-25T10:56:33.663Z,1.03
2018-09-25T10:59:07.195Z,0.60
2018-09-25T11:01:40.962Z,0.97
2018-09-25T11:04:14.635Z,0.93
2018-09-25T11:06:48.336Z,1.07
2018-09-25T11:09:22.050Z,0.67
2018-09-25T11:11:55.761Z,0.70
2018-09-25T11:14:29.460Z,0.80
2018-09-25T11:17:03.164Z,0.83
2018-09-25T11:19:36.984Z,0.70
2018-09-25T11:22:10.671Z,0.87
2018-09-25T11:24:44.390Z,1.63
2018-09-25T11:27:18.648Z,0.83
2018-09-25T11:29:52.702Z,0.80
2018-09-25T11:32:26.296Z,0.73
2018-09-25T11:34:59.956Z,1.10
2018-09-25T11:37:33.480Z,1.20
2018-09-25T11:40:07.229Z,0.80
2018-09-25T11:42:40.967Z,0.90
2018-09-25T11:45:14.852Z,0.87
2018-09-25T11:47:48.526Z,0.83
2018-09-25T11:50:22.152Z,1.53
2018-09-25T11:52:55.901Z,0.80
2018-09-25T11:55:29.523Z,0.90
2018-09-25T11:58:03.074Z,0.90
2018-09-25T12:00:36.848Z,0.83
2018-09-25T12:03:10.504Z,1.00
2018-09-25T12:05:44.200Z,0.90
2018-09-25T12:08:17.987Z,0.90
2018-09-25T12:10:51.748Z,0.73
2018-09-25T12:13:25.424Z,0.70
2018-09-25T12:15:59.104Z,0.90
2018-09-25T12:18:32.715Z,0.87
2018-09-25T12:21:06.569Z,1.60
2018-09-25T12:23:40.223Z,0.80
2018-09-25T12:26:13.999Z,1.30
2018-09-25T12:28:54.696Z,0.90
2018-09-25T12:31:28.529Z,0.80
2018-09-25T12:34:02.156Z,0.87
2018-09-25T12:36:35.863Z,1.20
2018-09-25T12:39:11.259Z,1.03
2018-09-25T12:41:44.944Z,1.50
2018-09-25T12:44:18.749Z,0.77
2018-09-25T12:46:52.369Z,1.07
2018-09-25T12:49:25.955Z,1.50
2018-09-25T12:51:59.664Z,1.20
2018-09-25T12:54:33.542Z,1.73
2018-09-25T12:57:07.135Z,0.97
2018-09-25T12:59:41.803Z,0.97
2018-09-25T13:02:15.387Z,1.00
2018-09-25T13:04:49.157Z,0.93
2018-09-25T13:07:22.805Z,1.13
2018-09-25T13:09:56.380Z,1.07
2018-09-25T13:12:29.967Z,1.07
2018-09-25T13:15:03.725Z,1.00
2018-09-25T13:17:37.504Z,1.17
2018-09-25T13:20:11.269Z,1.50
2018-09-25T13:22:44.890Z,0.70
2018-09-25T13:25:18.618Z,0.60
2018-09-25T13:27:52.281Z,0.57
2018-09-25T13:30:25.919Z,0.60
2018-09-25T13:32:59.615Z,1.00
2018-09-25T13:35:33.300Z,0.50
2018-09-25T13:38:06.927Z,1.00
2018-09-25T13:40:40.609Z,1.00
2018-09-25T13:43:14.321Z,0.60
2018-09-25T13:45:48.070Z,0.73
2018-09-25T13:48:21.771Z,0.77
2018-09-25T13:50:55.234Z,1.13
2018-09-25T13:53:28.990Z,0.70
2018-09-25T13:56:02.699Z,0.70
2018-09-25T13:58:36.333Z,1.00
2018-09-25T14:01:10.003Z,0.80
2018-09-25T14:03:43.752Z,0.87
2018-09-25T14:06:17.411Z,0.80
2018-09-25T14:08:51.110Z,0.83
2018-09-25T14:11:24.552Z,1.03
2018-09-25T14:13:58.276Z,0.97
2018-09-25T14:16:31.864Z,0.90
2018-09-25T14:19:05.617Z,0.63
2018-09-25T14:21:39.264Z,0.70
2018-09-25T14:24:12.929Z,1.00
2018-09-25T14:26:46.720Z,1.13
2018-09-25T14:29:20.285Z,0.60
2018-09-25T14:31:53.941Z,0.90
2018-09-25T14:34:27.616Z,1.10
2018-09-25T14:37:01.400Z,0.80
2018-09-25T14:39:35.008Z,1.03
2018-09-25T14:42:08.649Z,0.80
2018-09-25T14:44:42.244Z,0.87
2018-09-25T14:47:15.829Z,0.90
2018-09-25T14:49:49.515Z,0.87
2018-09-25T14:52:23.274Z,0.77
2018-09-25T14:54:56.860Z,0.70
2018-09-25T14:57:30.509Z,0.90
2018-09-25T15:00:04.381Z,1.00
2018-09-25T15:02:38.414Z,1.00
2018-09-25T15:05:15.434Z,1.00
2018-09-25T15:07:50.711Z,0.83
2018-09-25T15:10:25.557Z,0.83
2018-09-25T15:13:05.810Z,1.00
2018-09-25T15:15:42.912Z,1.07
2018-09-25T15:18:20.865Z,0.70
2018-09-25T15:20:54.700Z,1.20
2018-09-25T15:23:28.431Z,0.60
2018-09-25T15:26:02.021Z,0.80
2018-09-25T15:28:35.988Z,0.50
2018-09-25T15:31:09.760Z,1.17
2018-09-25T15:33:43.595Z,0.70
2018-09-25T15:36:17.375Z,0.60
2018-09-25T15:38:51.592Z,0.90
2018-09-25T15:41:25.596Z,1.03
2018-09-25T15:43:59.175Z,1.00
2018-09-25T15:46:32.867Z,0.80
2018-09-25T15:49:06.750Z,0.50
2018-09-25T15:51:40.595Z,1.43
2018-09-25T15:54:14.198Z,0.83
2018-09-25T15:56:48.011Z,0.60
2018-09-25T15:59:21.721Z,1.33
2018-09-25T16:01:55.409Z,0.93
2018-09-25T16:04:29.161Z,0.67
2018-09-25T16:07:02.868Z,0.90
2018-09-25T16:09:36.640Z,0.80
2018-09-25T16:12:10.279Z,1.33
2018-09-25T16:14:44.031Z,0.60
2018-09-25T16:17:18.067Z,0.60
2018-09-25T16:19:51.800Z,0.83
2018-09-25T16:22:25.472Z,0.90
2018-09-25T16:24:59.272Z,0.70
2018-09-25T16:27:32.965Z,1.07
2018-09-25T16:30:06.697Z,0.90
2018-09-25T16:32:40.392Z,0.77
2018-09-25T16:35:14.252Z,1.00
2018-09-25T16:37:48.128Z,0.60
2018-09-25T16:47:31.923Z,0.70
2018-09-25T16:50:05.631Z,0.57
2018-09-25T16:52:39.413Z,0.73
2018-09-25T16:55:13.123Z,0.80
2018-09-25T16:57:46.741Z,0.70
2018-09-25T17:00:21.628Z,0.93
2018-09-25T17:02:55.339Z,0.80
2018-09-25T17:05:28.782Z,0.50
2018-09-25T17:08:02.408Z,0.73
2018-09-25T17:10:36.035Z,1.20
2018-09-25T17:13:09.790Z,0.93
2018-09-25T17:15:43.508Z,1.00
2018-09-25T17:18:17.234Z,0.67
2018-09-25T17:20:50.980Z,0.93
2018-09-25T17:23:24.590Z,0.80
2018-09-25T17:25:58.205Z,0.90
2018-09-25T17:28:31.737Z,0.70
2018-09-25T17:31:05.514Z,0.97
2018-09-25T17:33:39.305Z,0.70
2018-09-25T17:36:13.143Z,1.40
2018-09-25T17:38:46.929Z,0.87
2018-09-25T17:41:20.684Z,0.77
2018-09-25T17:43:54.401Z,1.43
2018-09-25T17:46:28.126Z,0.67
2018-09-25T17:49:01.828Z,1.10
2018-09-25T17:51:35.528Z,1.20
2018-09-25T17:54:09.227Z,0.97
2018-09-25T17:56:43.299Z,0.70
2018-09-25T17:59:17.080Z,1.17
2018-09-25T18:01:51.009Z,0.90
2018-09-25T18:04:24.644Z,0.90
2018-09-25T18:06:58.251Z,1.13
2018-09-25T18:09:32.046Z,0.70
2018-09-25T18:12:05.580Z,1.00
2018-09-25T18:14:39.336Z,1.20
2018-09-25T18:17:12.851Z,1.43
2018-09-25T18:19:47.661Z,0.80
2018-09-25T18:22:21.264Z,1.37
2018-09-25T18:24:55.029Z,1.33
2018-09-25T18:27:28.734Z,0.80
2018-09-25T18:30:02.513Z,1.17
2018-09-25T18:32:37.573Z,1.10
2018-09-25T18:35:11.304Z,0.73
2018-09-25T18:37:44.872Z,0.97
2018-09-25T18:40:25.268Z,0.80
2018-09-25T18:42:58.935Z,1.00
2018-09-25T18:45:32.672Z,1.00
2018-09-25T18:48:06.348Z,1.07
2018-09-25T18:50:40.106Z,0.90
2018-09-25T18:53:14.240Z,0.90
2018-09-25T18:55:48.096Z,0.90
2018-09-25T18:58:21.860Z,1.20
2018-09-25T19:00:55.692Z,1.07
2018-09-25T19:03:29.416Z,0.70
2018-09-25T19:06:03.069Z,0.80
2018-09-25T19:08:36.779Z,0.80
2018-09-25T19:11:10.575Z,0.90
2018-09-25T19:13:46.986Z,0.90
2018-09-25T19:16:20.675Z,0.90
2018-09-25T19:18:54.487Z,1.07
2018-09-25T19:21:28.120Z,1.10
2018-09-25T19:24:01.734Z,1.13
2018-09-25T19:26:35.284Z,1.47
2018-09-25T19:29:08.969Z,1.60
2018-09-25T19:31:42.769Z,0.90
2018-09-25T19:34:19.516Z,0.73
2018-09-25T19:36:53.114Z,1.57
2018-09-25T19:39:26.830Z,0.90
2018-09-25T19:42:01.808Z,1.07
2018-09-25T19:44:35.553Z,1.10
2018-09-25T19:47:09.259Z,0.70
2018-09-25T19:49:43.048Z,1.03
2018-09-25T19:52:16.700Z,1.27
2018-09-25T19:54:50.254Z,0.90
2018-09-25T19:57:23.916Z,1.40
2018-09-25T19:59:57.679Z,1.20
2018-09-25T20:02:31.407Z,0.70
2018-09-25T20:05:05.183Z,1.13
2018-09-25T20:07:38.897Z,1.03
2018-09-25T20:10:12.499Z,0.90
2018-09-25T20:12:46.243Z,1.03
2018-09-25T20:15:20.157Z,0.70
2018-09-25T20:17:53.932Z,1.13
2018-09-25T20:20:27.731Z,1.27
2018-09-25T20:23:01.371Z,1.10
2018-09-25T20:25:35.079Z,1.60
2018-09-25T20:28:08.750Z,1.07
2018-09-25T20:30:42.552Z,0.90
2018-09-25T20:36:36.481Z,0.80
2018-09-25T20:39:10.520Z,1.73
2018-09-25T20:41:45.739Z,1.27
2018-09-25T20:44:21.542Z,0.63
2018-09-25T20:46:55.305Z,1.10
2018-09-25T20:49:29.060Z,0.70
2018-09-25T20:52:02.852Z,1.03
2018-09-25T20:54:37.272Z,1.10
2018-09-25T20:57:11.080Z,0.87
2018-09-25T20:59:44.693Z,1.00
2018-09-25T21:02:18.215Z,1.40
2018-09-25T21:04:51.981Z,1.13
2018-09-25T21:07:25.819Z,1.10
2018-09-25T21:09:59.528Z,0.80
2018-09-25T21:12:33.213Z,1.17
2018-09-25T21:15:06.940Z,1.50
2018-09-25T21:17:41.585Z,0.93
2018-09-25T21:20:15.496Z,0.70
2018-09-25T21:22:49.450Z,1.03
2018-09-25T21:25:23.303Z,1.27
2018-09-25T21:27:57.344Z,0.63
2018-09-25T21:30:31.435Z,1.07
2018-09-25T21:33:05.013Z,0.80
2018-09-25T21:35:38.443Z,0.97
2018-09-25T21:38:12.232Z,1.07
2018-09-25T21:40:45.949Z,1.40
2018-09-25T21:43:19.575Z,1.13
2018-09-25T21:46:00.060Z,1.20
2018-09-25T21:48:34.510Z,1.00
2018-09-25T21:51:08.282Z,1.03
2018-09-25T21:53:41.957Z,1.13
2018-09-25T21:56:15.613Z,0.83
2018-09-25T21:58:49.392Z,0.77
2018-09-25T22:01:23.159Z,0.63
2018-09-25T22:03:56.988Z,1.27
2018-09-25T22:06:30.674Z,1.10
2018-09-25T22:09:04.339Z,0.90
2018-09-25T22:11:38.073Z,1.30
2018-09-25T22:14:11.668Z,0.70
2018-09-25T22:16:45.333Z,1.37
2018-09-25T22:19:19.057Z,1.10
2018-09-25T22:21:52.805Z,1.20
2018-09-25T22:24:26.378Z,0.80
2018-09-25T22:26:59.923Z,1.07
2018-09-25T22:29:33.559Z,1.07
2018-09-25T22:32:07.384Z,0.70
2018-09-25T22:34:41.105Z,1.37
2018-09-25T22:37:14.869Z,0.90
2018-09-25T22:39:48.620Z,1.20
2018-09-25T22:42:22.296Z,0.87
2018-09-25T22:44:56.016Z,1.07
2018-09-25T22:47:29.775Z,0.83
2018-09-25T22:50:03.415Z,1.10
2018-09-25T22:52:37.142Z,1.50
2018-09-25T22:55:10.550Z,0.90
2018-09-25T22:57:44.003Z,1.00
2018-09-25T23:00:17.612Z,1.80
2018-09-25T23:02:51.212Z,1.23
2018-09-25T23:05:24.847Z,1.10
2018-09-25T23:07:58.492Z,1.00
2018-09-25T23:10:31.965Z,0.77
2018-09-25T23:13:05.404Z,1.00
2018-09-25T23:15:38.850Z,1.03
2018-09-25T23:18:12.580Z,1.10
2018-09-25T23:20:46.367Z,1.20
2018-09-25T23:23:20.086Z,1.10
2018-09-25T23:25:53.544Z,0.90
2018-09-25T23:28:27.264Z,0.80
2018-09-25T23:31:00.986Z,0.90
2018-09-25T23:33:34.621Z,1.27
2018-09-25T23:36:08.316Z,1.47
2018-09-25T23:38:41.807Z,0.87
2018-09-25T23:41:20.256Z,1.63
2018-09-25T23:43:55.590Z,0.80
2018-09-25T23:46:29.067Z,0.80
2018-09-25T23:49:02.467Z,0.80
2018-09-25T23:51:36.188Z,0.73
2018-09-25T23:54:25.825Z,0.97
2018-09-25T23:57:12.201Z,1.00
